^^
Grace C. Lehan Memorial Weather Station Historical Data
Daily Summary for June 4, 2021 Units:  English    Metric   Both
Daily Weekly Monthly Yearly
  High: Low: Average:
Temperature: 51.6 °F 31.9 °F 41.4 °F
Dew Point: 37.2 °F 29 °F 32.5 °F
Humidity: 94% 44.5% 73%
Wind Speed: 2.1mph 0mph 0.1mph
Wind Gust: 7mph - -
Wind- - South
Pressure: 30.36 in 30.25 in -
Precipitation: 0.00 in    
 
 
Tabular Data for June 4, 2021
Time Temperature Dew Point Pressure Wind Wind Speed Wind Gust Humidity Rainfall Rate (Hourly) solar
00:04 40.5 °F 32.5 °F 30.29 in Calm     73% 0.00 in 0 W/m2
00:09 40.4 °F 32.5 °F 30.29 in Calm     73% 0.00 in 0 W/m2
00:14 40.3 °F 32.6 °F 30.29 in Calm   1 mph 73.8% 0.00 in 0 W/m2
00:19 40.2 °F 32.6 °F 30.29 in Calm   1 mph 74% 0.00 in 0 W/m2
00:24 40 °F 32.7 °F 30.30 in Calm   1 mph 74.7% 0.00 in 0 W/m2
00:29 39.8 °F 32.5 °F 30.30 in Calm   1 mph 75% 0.00 in 0 W/m2
00:34 39.6 °F 32.5 °F 30.30 in Calm   1 mph 75.5% 0.00 in 0 W/m2
00:39 39.4 °F 32.4 °F 30.30 in Calm     76% 0.00 in 0 W/m2
00:44 39.1 °F 32.2 °F 30.30 in Calm     76% 0.00 in 0 W/m2
00:49 39 °F 32.2 °F 30.30 in Calm     76.4% 0.00 in 0 W/m2
00:54 38.8 °F 32.3 °F 30.30 in Calm     77% 0.00 in 0 W/m2
00:59 38.7 °F 32.4 °F 30.30 in Calm     78% 0.00 in 0 W/m2
01:04 38.5 °F 32.3 °F 30.30 in Calm     78% 0.00 in 0 W/m2
01:09 38.3 °F 32.4 °F 30.30 in Calm     78.8% 0.00 in 0 W/m2
01:14 38.2 °F 32.2 °F 30.30 in Calm     79% 0.00 in 0 W/m2
01:19 38 °F 32.1 °F 30.29 in Calm     79.3% 0.00 in 0 W/m2
01:24 37.8 °F 32.2 °F 30.30 in Calm     80% 0.00 in 0 W/m2
01:29 37.5 °F 31.9 °F 30.29 in Calm     80% 0.00 in 0 W/m2
01:34 37.3 °F 31.9 °F 30.30 in Calm     80.4% 0.00 in 0 W/m2
01:39 37.1 °F 31.8 °F 30.30 in Calm     81% 0.00 in 0 W/m2
01:44 36.9 °F 31.9 °F 30.30 in Calm     82% 0.00 in 0 W/m2
01:49 36.8 °F 31.8 °F 30.29 in Calm     82% 0.00 in 0 W/m2
01:54 36.6 °F 31.8 °F 30.29 in Calm     82.6% 0.00 in 0 W/m2
01:59 36.4 °F 31.8 °F 30.29 in Calm     83% 0.00 in 0 W/m2
02:04 36.3 °F 31.6 °F 30.29 in Calm     83% 0.00 in 0 W/m2
02:09 36.2 °F 31.5 °F 30.29 in Calm     83% 0.00 in 0 W/m2
02:14 36 °F 31.5 °F 30.29 in Calm     83.3% 0.00 in 0 W/m2
02:19 36 °F 31.6 °F 30.30 in Calm     84% 0.00 in 0 W/m2
02:24 35.9 °F 31.8 °F 30.29 in Calm     84.8% 0.00 in 0 W/m2
02:29 35.9 °F 31.8 °F 30.29 in Calm     85% 0.00 in 0 W/m2
02:34 35.6 °F 31.6 °F 30.30 in Calm     85% 0.00 in 0 W/m2
02:39 35.4 °F 31.3 °F 30.30 in Calm     85% 0.00 in 0 W/m2
02:44 35.2 °F 31.3 °F 30.30 in Calm     85.6% 0.00 in 0 W/m2
02:49 35.1 °F 31.3 °F 30.30 in Calm     86% 0.00 in 0 W/m2
02:54 34.9 °F 31.2 °F 30.30 in Calm     86% 0.00 in 0 W/m2
02:59 34.8 °F 31.2 °F 30.29 in Calm     86.5% 0.00 in 0 W/m2
03:04 34.7 °F 31.2 °F 30.30 in Calm     87% 0.00 in 0 W/m2
03:09 34.6 °F 31.1 °F 30.30 in Calm     87% 0.00 in 0 W/m2
03:14 34.4 °F 31.2 °F 30.30 in Calm     87.7% 0.00 in 0 W/m2
03:19 34.3 °F 31.1 °F 30.30 in Calm     88% 0.00 in 0 W/m2
03:24 34.3 °F 31.1 °F 30.30 in Calm     88% 0.00 in 0 W/m2
03:29 34.3 °F 31.4 °F 30.30 in Calm     88.8% 0.00 in 0 W/m2
03:34 34.3 °F 31.4 °F 30.30 in Calm   2 mph 89% 0.00 in 0 W/m2
03:39 34.3 °F 31.4 °F 30.30 in Calm   2 mph 89% 0.00 in 0 W/m2
03:44 34.3 °F 31.4 °F 30.30 in Calm   2 mph 89% 0.00 in 0 W/m2
03:49 34.3 °F 31.4 °F 30.30 in Calm   2 mph 89% 0.00 in 0 W/m2
03:54 34.2 °F 31.3 °F 30.30 in Calm   2 mph 89% 0.00 in 0 W/m2
03:59 34.2 °F 31.3 °F 30.30 in Calm   2 mph 89% 0.00 in 0 W/m2
04:00 34.1 °F 31.2 °F 30.30 in Calm   2 mph 89% 0.00 in 0 W/m2
04:09 33.9 °F 31.1 °F 30.30 in Calm     89% 0.00 in 0 W/m2
04:14 33.8 °F 31.4 °F 30.30 in Calm     90.9% 0.00 in 0 W/m2
04:19 33.8 °F 31.6 °F 30.30 in Calm     91.9% 0.00 in 0 W/m2
04:24 33.7 °F 31.1 °F 30.30 in Calm     90% 0.00 in 0 W/m2
04:29 33.6 °F 31 °F 30.30 in Calm     90% 0.00 in 0 W/m2
04:34 33.6 °F 30.9 °F 30.30 in Calm     90% 0.00 in 0 W/m2
04:39 33.5 °F 30.9 °F 30.30 in Calm     90% 0.00 in 0 W/m2
04:44 33.5 °F 30.9 °F 30.30 in Calm     90.1% 0.00 in 0 W/m2
04:49 33.5 °F 31 °F 30.31 in Calm     90.2% 0.00 in 0 W/m2
04:54 33.5 °F 30.9 °F 30.31 in Calm     90% 0.00 in 0 W/m2
04:59 33.5 °F 30.9 °F 30.31 in Calm     90% 0.00 in 0 W/m2
05:04 33.4 °F 30.8 °F 30.31 in Calm     90% 0.00 in 0 W/m2
05:09 33.4 °F 31.1 °F 30.31 in Calm     91% 0.00 in 0 W/m2
05:14 33.5 °F 31.1 °F 30.31 in Calm     91% 0.00 in 0 W/m2
05:19 33.5 °F 31.2 °F 30.31 in Calm     91% 0.00 in 0 W/m2
05:24 33.5 °F 31.2 °F 30.31 in Calm     91% 0.00 in 0 W/m2
05:29 33.5 °F 31.2 °F 30.31 in Calm     91% 0.00 in 0 W/m2
05:34 33.4 °F 31.1 °F 30.32 in Calm     91% 0.00 in 0 W/m2
05:39 33.4 °F 31.1 °F 30.32 in Calm     91% 0.00 in 0 W/m2
05:44 33.3 °F 31 °F 30.32 in Calm     91% 0.00 in 0 W/m2
05:49 33.3 °F 31 °F 30.32 in Calm     91% 0.00 in 0 W/m2
05:54 33.2 °F 30.9 °F 30.32 in Calm     91% 0.00 in 0 W/m2
05:59 33.2 °F 30.9 °F 30.32 in Calm     91% 0.00 in 0 W/m2
06:04 33.2 °F 30.8 °F 30.33 in Calm     91% 0.00 in 0 W/m2
06:09 33.1 °F 30.7 °F 30.33 in Calm     91% 0.00 in 0 W/m2
06:14 33 °F 30.6 °F 30.33 in Calm     91% 0.00 in 0 W/m2
06:19 32.9 °F 30.5 °F 30.33 in Calm     91% 0.00 in 0 W/m2
06:24 32.8 °F 30.5 °F 30.33 in Calm     91% 0.00 in 0 W/m2
06:29 32.7 °F 30.4 °F 30.33 in Calm     91% 0.00 in 0 W/m2
06:34 32.7 °F 30.4 °F 30.33 in Calm     91% 0.00 in 0 W/m2
06:39 32.7 °F 30.4 °F 30.33 in Calm     91.4% 0.00 in 0 W/m2
06:44 32.6 °F 30.5 °F 30.33 in Calm     92% 0.00 in 0 W/m2
06:49 32.6 °F 30.5 °F 30.33 in Calm     92% 0.00 in 0 W/m2
06:54 32.5 °F 30.5 °F 30.33 in Calm     92% 0.00 in 0 W/m2
06:59 32.5 °F 30.3 °F 30.33 in Calm     91.5% 0.00 in 0 W/m2
07:04 32.4 °F 30.4 °F 30.33 in Calm     92% 0.00 in 0 W/m2
07:09 32.4 °F 30.3 °F 30.34 in Calm     92% 0.00 in 0 W/m2
07:14 32.4 °F 30.3 °F 30.34 in Calm     92% 0.00 in 0 W/m2
07:19 32.3 °F 30.2 °F 30.34 in Calm     92% 0.00 in 0 W/m2
07:24 32.3 °F 30.2 °F 30.34 in Calm     92% 0.00 in 0 W/m2
07:29 32.1 °F 30.1 °F 30.34 in Calm     92% 0.00 in 0 W/m2
07:34 32.1 °F 30 °F 30.34 in Calm     92% 0.00 in 5 W/m2
07:39 32 °F 29.9 °F 30.34 in Calm     92% 0.00 in 5 W/m2
07:44 31.9 °F 29.8 °F 30.34 in Calm     92% 0.00 in 11 W/m2
07:49 31.9 °F 29.8 °F 30.35 in Calm     92% 0.00 in 18 W/m2
07:54 31.9 °F 29.8 °F 30.35 in Calm     92% 0.00 in 23 W/m2
07:59 31.9 °F 29.9 °F 30.35 in Calm     92% 0.00 in 19 W/m2
08:00 32 °F 29.9 °F 30.35 in Calm     92% 0.00 in 19 W/m2
08:09 32.3 °F 30.5 °F 30.35 in Calm     93% 0.00 in 39 W/m2
08:14 32.5 °F 30.7 °F 30.35 in Calm     93% 0.00 in 39 W/m2
08:19 32.8 °F 31 °F 30.35 in Calm     93% 0.00 in 39 W/m2
08:24 33 °F 31.2 °F 30.36 in Calm     93% 0.00 in 70 W/m2
08:29 33.2 °F 31.4 °F 30.36 in Calm     93% 0.00 in 47 W/m2
08:34 33.4 °F 31.6 °F 30.36 in Calm     93% 0.00 in 51 W/m2
08:39 33.7 °F 31.9 °F 30.36 in Calm     93% 0.00 in 51 W/m2
08:44 33.9 °F 32.1 °F 30.36 in Calm     93% 0.00 in 56 W/m2
08:49 34.1 °F 32.3 °F 30.36 in Calm     93% 0.00 in 58 W/m2
08:54 34.4 °F 32.6 °F 30.36 in Calm     93% 0.00 in 116 W/m2
08:59 34.7 °F 32.9 °F 30.36 in Calm     93% 0.00 in 218 W/m2
09:04 35.3 °F 33.7 °F 30.35 in Calm     93.7% 0.00 in 274 W/m2
09:09 36.1 °F 34.6 °F 30.35 in Calm     94% 0.00 in 287 W/m2
09:14 37.1 °F 35.5 °F 30.35 in Calm     94% 0.00 in 299 W/m2
09:19 38 °F 36.1 °F 30.35 in NW 0.5 mph 2 mph 92.8% 0.00 in 311 W/m2
09:24 39.1 °F 36.6 °F 30.35 in Calm   2 mph 90.7% 0.00 in 322 W/m2
09:29 40 °F 36.9 °F 30.35 in Calm   2 mph 88.3% 0.00 in 334 W/m2
09:34 41.1 °F 37.2 °F 30.36 in Calm   2 mph 85.8% 0.00 in 348 W/m2
09:39 42.1 °F 37.1 °F 30.36 in Calm   1 mph 82.5% 0.00 in 362 W/m2
09:44 42.7 °F 36.8 °F 30.36 in Calm   1 mph 79.5% 0.00 in 374 W/m2
09:49 43.2 °F 37.2 °F 30.35 in NNW 0.5 mph 3 mph 79% 0.00 in 387 W/m2
09:54 43.8 °F 37.2 °F 30.35 in NNW 0.1 mph 3 mph 77.2% 0.00 in 396 W/m2
09:59 44.3 °F 36.9 °F 30.35 in NNW 0.1 mph 3 mph 75.1% 0.00 in 408 W/m2
10:04 44.5 °F 36.9 °F 30.35 in NNW 0.9 mph 4 mph 74.5% 0.00 in 420 W/m2
10:09 44.9 °F 36.9 °F 30.35 in Calm   4 mph 73.1% 0.00 in 429 W/m2
10:14 45.4 °F 37.1 °F 30.35 in NNW 0.1 mph 4 mph 72.5% 0.00 in 443 W/m2
10:19 45.8 °F 37.1 °F 30.35 in NNW 0.3 mph 4 mph 71.6% 0.00 in 443 W/m2
10:24 46 °F 36.8 °F 30.34 in NNW 0.5 mph 4 mph 70% 0.00 in 192 W/m2
10:29 45.9 °F 36.5 °F 30.35 in NE 1.3 mph 4 mph 69.4% 0.00 in 443 W/m2
10:34 45.5 °F 35.5 °F 30.35 in ENE 0.8 mph 4 mph 68% 0.00 in 471 W/m2
10:39 45 °F 35.4 °F 30.35 in ENE 0.3 mph 4 mph 68.7% 0.00 in 494 W/m2
10:44 45 °F 35.6 °F 30.34 in ENE 0.4 mph 4 mph 69.5% 0.00 in 504 W/m2
10:49 45 °F 35.6 °F 30.34 in ENE 0.4 mph 4 mph 69.3% 0.00 in 510 W/m2
10:54 45 °F 35.5 °F 30.34 in Calm   4 mph 69.2% 0.00 in 512 W/m2
10:59 45.3 °F 36.1 °F 30.34 in ENE 0.3 mph 4 mph 70% 0.00 in 424 W/m2
11:04 45.7 °F 36.3 °F 30.35 in ENE 0.3 mph 4 mph 69.5% 0.00 in 213 W/m2
11:09 45.7 °F 35.6 °F 30.34 in NE 0.3 mph 3 mph 67.8% 0.00 in 540 W/m2
11:14 45.8 °F 35.9 °F 30.34 in Calm   3 mph 68.2% 0.00 in 545 W/m2
11:19 46.3 °F 36 °F 30.34 in Calm   3 mph 67% 0.00 in 548 W/m2
11:24 46.8 °F 36.1 °F 30.35 in NE 0.4 mph 4 mph 66.1% 0.00 in 561 W/m2
11:29 47.3 °F 36.2 °F 30.35 in Calm   4 mph 65.1% 0.00 in 566 W/m2
11:34 47.7 °F 36.3 °F 30.35 in NNE 0.2 mph 4 mph 64.3% 0.00 in 571 W/m2
11:39 48.2 °F 36.6 °F 30.35 in NW 0.9 mph 5 mph 64% 0.00 in 575 W/m2
11:44 48.8 °F 36.5 °F 30.34 in NW 0.6 mph 5 mph 62.4% 0.00 in 520 W/m2
11:49 49.1 °F 35.8 °F 30.34 in NNW 1.1 mph 7 mph 60% 0.00 in 355 W/m2
11:54 49 °F 35.9 °F 30.34 in NW 1.5 mph 7 mph 60.3% 0.00 in 457 W/m2
11:59 49 °F 35.4 °F 30.33 in NW 0.5 mph 7 mph 59.3% 0.00 in 432 W/m2
12:00 49 °F 36.2 °F 30.33 in WNW 2 mph 7 mph 61% 0.00 in 40 W/m2
12:09 49.1 °F 35.9 °F 30.33 in WNW 0.2 mph 2 mph 60.2% 0.00 in 399 W/m2
12:14 49.4 °F 35.5 °F 30.32 in NNE 0.9 mph 5 mph 58.6% 0.00 in 441 W/m2
12:19 49.4 °F 34.4 °F 30.32 in ENE 2.1 mph 5 mph 56.1% 0.00 in 387 W/m2
12:24 49 °F 33.2 °F 30.31 in East 0.9 mph 5 mph 54.4% 0.00 in 155 W/m2
12:29 48.6 °F 33.9 °F 30.31 in ENE 0.3 mph 5 mph 56.6% 0.00 in 155 W/m2
12:34 48.4 °F 33.8 °F 30.31 in ENE 0.1 mph 5 mph 56.7% 0.00 in 183 W/m2
12:39 48.5 °F 34.6 °F 30.31 in Calm   1 mph 58.3% 0.00 in 287 W/m2
12:44 48.8 °F 33.7 °F 30.31 in ENE 0.6 mph 2 mph 55.9% 0.00 in 287 W/m2
12:49 49 °F 33.5 °F 30.31 in NE 0.8 mph 3 mph 54.9% 0.00 in 299 W/m2
12:54 49.2 °F 33.4 °F 30.30 in North 0.4 mph 3 mph 54.4% 0.00 in 176 W/m2
12:59 49.3 °F 33.4 °F 30.30 in North 0.2 mph 3 mph 54% 0.00 in 199 W/m2
13:04 49.5 °F 34.1 °F 30.30 in North 0.1 mph 3 mph 55.2% 0.00 in 541 W/m2
13:09 49.6 °F 33.1 °F 30.29 in North 0.6 mph 3 mph 52.8% 0.00 in 322 W/m2
13:14 49.7 °F 33.7 °F 30.29 in North 0.9 mph 3 mph 54.1% 0.00 in 276 W/m2
13:19 49.9 °F 33.8 °F 30.29 in NNW 0.4 mph 4 mph 53.8% 0.00 in 441 W/m2
13:24 50.1 °F 34 °F 30.29 in NNW 0.2 mph 4 mph 53.7% 0.00 in 536 W/m2
13:29 50.4 °F 32.9 °F 30.29 in Calm   4 mph 50.9% 0.00 in 504 W/m2
13:34 50.4 °F 33 °F 30.28 in Calm   4 mph 51% 0.00 in 480 W/m2
13:39 50.5 °F 33.1 °F 30.28 in Calm     51% 0.00 in 297 W/m2
13:44 50.6 °F 33.6 °F 30.28 in Calm   1 mph 51.9% 0.00 in 167 W/m2
13:49 50.7 °F 33 °F 30.28 in Calm   1 mph 50.4% 0.00 in 167 W/m2
13:54 50.6 °F 32.7 °F 30.28 in Calm   1 mph 50.1% 0.00 in 434 W/m2
13:59 50.5 °F 32.7 °F 30.28 in Calm   1 mph 50.4% 0.00 in 455 W/m2
14:04 50.6 °F 32.3 °F 30.28 in NNW 0.1 mph 1 mph 49.4% 0.00 in 276 W/m2
14:09 50.9 °F 32.9 °F 30.27 in Calm   1 mph 50% 0.00 in 376 W/m2
14:14 51.3 °F 33.2 °F 30.27 in NW 0.9 mph 4 mph 49.8% 0.00 in 209 W/m2
14:19 51.4 °F 32.6 °F 30.27 in WNW 0.1 mph 4 mph 48.5% 0.00 in 220 W/m2
14:24 51.4 °F 33.1 °F 30.27 in Calm   4 mph 49.3% 0.00 in 186 W/m2
14:29 51.6 °F 32.5 °F 30.27 in Calm   4 mph 47.8% 0.00 in 186 W/m2
14:34 51.5 °F 32 °F 30.27 in NW 0.2 mph 4 mph 47% 0.00 in 320 W/m2
14:39 51.6 °F 31.5 °F 30.26 in Calm   2 mph 46.1% 0.00 in 283 W/m2
14:44 51.5 °F 31.3 °F 30.26 in Calm   2 mph 45.7% 0.00 in 156 W/m2
14:49 51.4 °F 31.8 °F 30.26 in Calm   2 mph 46.8% 0.00 in 239 W/m2
14:54 51.4 °F 31.9 °F 30.26 in Calm   2 mph 47.1% 0.00 in 239 W/m2
14:59 51.4 °F 32 °F 30.26 in Calm   2 mph 47.2% 0.00 in 130 W/m2
15:04 51.5 °F 31.8 °F 30.26 in Calm   2 mph 46.7% 0.00 in 155 W/m2
15:09 51.5 °F 30.9 °F 30.26 in Calm     45.1% 0.00 in 162 W/m2
15:14 51.4 °F 30.9 °F 30.26 in Calm     45.3% 0.00 in 158 W/m2
15:19 51.3 °F 31.3 °F 30.26 in Calm     46.1% 0.00 in 278 W/m2
15:24 51.3 °F 31.4 °F 30.26 in Calm   2 mph 46.4% 0.00 in 346 W/m2
15:29 51.3 °F 31.1 °F 30.26 in North 0.3 mph 2 mph 45.7% 0.00 in 304 W/m2
15:34 51.2 °F 31.1 °F 30.26 in Calm   2 mph 45.8% 0.00 in 134 W/m2
15:39 51.1 °F 30.5 °F 30.26 in NNE 0.1 mph 2 mph 45% 0.00 in 116 W/m2
15:44 50.9 °F 30.5 °F 30.26 in Calm   2 mph 45.3% 0.00 in 100 W/m2
15:49 50.7 °F 30.9 °F 30.26 in Calm   2 mph 46.3% 0.00 in 93 W/m2
15:54 50.6 °F 30.7 °F 30.26 in Calm   2 mph 46.2% 0.00 in 100 W/m2
15:59 50.5 °F 31.2 °F 30.26 in Calm   2 mph 47.3% 0.00 in 100 W/m2
16:00 50.5 °F 31 °F 30.25 in Calm   2 mph 47% 0.00 in 93 W/m2
16:09 50.5 °F 31.9 °F 30.26 in Calm     48.6% 0.00 in 98 W/m2
16:14 50.5 °F 31 °F 30.26 in Calm   1 mph 46.9% 0.00 in 84 W/m2
16:19 50.4 °F 29.8 °F 30.26 in NNE 0.3 mph 3 mph 45% 0.00 in 84 W/m2
16:24 50.2 °F 29.7 °F 30.26 in Calm   3 mph 45% 0.00 in 67 W/m2
16:29 50.1 °F 30 °F 30.26 in Calm   3 mph 45.8% 0.00 in 54 W/m2
16:34 49.9 °F 29.6 °F 30.26 in Calm   3 mph 45.4% 0.00 in 60 W/m2
16:39 49.7 °F 29 °F 30.26 in Calm     44.5% 0.00 in 58 W/m2
16:44 49.6 °F 30.3 °F 30.25 in Calm     47.2% 0.00 in 47 W/m2
16:49 49.5 °F 30 °F 30.26 in Calm     46.7% 0.00 in 46 W/m2
16:54 49.4 °F 30.6 °F 30.26 in Calm     48% 0.00 in 44 W/m2
16:59 49.3 °F 30.5 °F 30.25 in Calm     48.2% 0.00 in 35 W/m2
17:04 49.2 °F 30.3 °F 30.25 in Calm     48% 0.00 in 33 W/m2
17:09 49 °F 30.7 °F 30.25 in Calm     49% 0.00 in 25 W/m2
17:14 48.9 °F 30.6 °F 30.25 in Calm     49% 0.00 in 19 W/m2
17:19 48.7 °F 30.8 °F 30.25 in Calm     49.8% 0.00 in 18 W/m2
17:24 48.5 °F 30.7 °F 30.25 in Calm     50% 0.00 in 14 W/m2
17:29 48.3 °F 30.4 °F 30.25 in Calm     49.7% 0.00 in 11 W/m2
17:34 48.1 °F 30.6 °F 30.25 in Calm     50.5% 0.00 in 5 W/m2
17:39 47.9 °F 30.7 °F 30.25 in Calm     51% 0.00 in 0 W/m2
17:44 47.7 °F 30.5 °F 30.25 in Calm     51.1% 0.00 in 0 W/m2
17:49 47.5 °F 30.8 °F 30.25 in Calm     52% 0.00 in 0 W/m2
17:54 47.3 °F 30.5 °F 30.25 in Calm     52% 0.00 in 0 W/m2
17:59 47 °F 30.1 °F 30.26 in Calm     51.7% 0.00 in 0 W/m2
18:04 46.8 °F 30.5 °F 30.25 in Calm     52.7% 0.00 in 0 W/m2
18:09 46.6 °F 30.8 °F 30.25 in Calm     53.9% 0.00 in 0 W/m2
18:14 46.3 °F 30.9 °F 30.25 in Calm     54.6% 0.00 in 0 W/m2
18:19 46.1 °F 31.8 °F 30.25 in Calm     57% 0.00 in 0 W/m2
18:24 45.9 °F 32.3 °F 30.26 in Calm     58.9% 0.00 in 0 W/m2
18:29 45.7 °F 32.8 °F 30.26 in Calm     60.4% 0.00 in 0 W/m2
18:34 45.5 °F 32.9 °F 30.26 in Calm     61.2% 0.00 in 0 W/m2
18:39 45.2 °F 33 °F 30.25 in Calm     62% 0.00 in 0 W/m2
18:44 45 °F 32.9 °F 30.26 in Calm     62.2% 0.00 in 0 W/m2
18:49 44.8 °F 33 °F 30.26 in Calm     63% 0.00 in 0 W/m2
18:54 44.6 °F 33 °F 30.26 in Calm     63.5% 0.00 in 0 W/m2
18:59 44.4 °F 33.5 °F 30.25 in Calm     65.3% 0.00 in 0 W/m2
19:04 44.2 °F 33.5 °F 30.25 in Calm     66% 0.00 in 0 W/m2
19:09 43.9 °F 33.5 °F 30.26 in Calm     66.5% 0.00 in 0 W/m2
19:14 43.7 °F 33.7 °F 30.26 in Calm     67.5% 0.00 in 0 W/m2
19:19 43.5 °F 33.7 °F 30.26 in Calm     68% 0.00 in 0 W/m2
19:24 43.3 °F 33.6 °F 30.26 in Calm     68.5% 0.00 in 0 W/m2
19:29 43.1 °F 33.7 °F 30.26 in Calm     69% 0.00 in 0 W/m2
19:34 42.9 °F 33.5 °F 30.26 in Calm     69% 0.00 in 0 W/m2
19:39 42.8 °F 33.3 °F 30.26 in Calm     69% 0.00 in 0 W/m2
19:44 42.6 °F 33.2 °F 30.26 in Calm     69% 0.00 in 0 W/m2
19:49 42.5 °F 33 °F 30.26 in Calm     69% 0.00 in 0 W/m2
19:54 42.4 °F 33.3 °F 30.26 in Calm     69.9% 0.00 in 0 W/m2
19:59 42.3 °F 33.2 °F 30.26 in Calm     70% 0.00 in 0 W/m2
20:00 42.2 °F 33.1 °F 30.26 in Calm     70% 0.00 in 0 W/m2
20:09 42.1 °F 33.1 °F 30.25 in Calm     70% 0.00 in 0 W/m2
20:14 42 °F 33.1 °F 30.25 in Calm     70.4% 0.00 in 0 W/m2
20:19 42 °F 33.5 °F 30.25 in Calm     71.5% 0.00 in 0 W/m2
20:24 41.9 °F 33.9 °F 30.25 in Calm     73% 0.00 in 0 W/m2
20:29 41.8 °F 33.8 °F 30.25 in Calm     73% 0.00 in 0 W/m2
20:34 41.7 °F 33.7 °F 30.25 in Calm     73% 0.00 in 0 W/m2
20:39 41.6 °F 33.6 °F 30.25 in Calm     73.1% 0.00 in 0 W/m2
20:44 41.5 °F 33.6 °F 30.25 in Calm     73.4% 0.00 in 0 W/m2
20:49 41.3 °F 33.9 °F 30.25 in Calm     74.7% 0.00 in 0 W/m2
20:54 41.2 °F 34.2 °F 30.26 in Calm     75.9% 0.00 in 0 W/m2
20:59 41.1 °F 34.1 °F 30.25 in Calm     76% 0.00 in 0 W/m2
21:04 40.9 °F 34.1 °F 30.25 in Calm     76.3% 0.00 in 0 W/m2
21:09 40.8 °F 34.2 °F 30.25 in Calm     77% 0.00 in 0 W/m2
21:14 40.7 °F 33.7 °F 30.25 in Calm     76.1% 0.00 in 0 W/m2
21:19 40.6 °F 33.1 °F 30.25 in Calm     74.5% 0.00 in 0 W/m2
21:24 40.5 °F 33.2 °F 30.25 in Calm     75% 0.00 in 0 W/m2
21:29 40.5 °F 33.5 °F 30.25 in Calm     76% 0.00 in 0 W/m2
21:34 40.4 °F 33.4 °F 30.25 in Calm     76% 0.00 in 0 W/m2
21:39 40.2 °F 33.3 °F 30.25 in Calm     76% 0.00 in 0 W/m2
21:44 40.2 °F 33.5 °F 30.25 in Calm     77% 0.00 in 0 W/m2
21:49 40 °F 33.4 °F 30.25 in Calm     77% 0.00 in 0 W/m2
21:54 39.9 °F 33.5 °F 30.25 in Calm     77.6% 0.00 in 0 W/m2
21:59 39.8 °F 33.5 °F 30.25 in Calm     78% 0.00 in 0 W/m2
22:04 39.7 °F 33.4 °F 30.25 in Calm     78% 0.00 in 0 W/m2
22:09 39.6 °F 33.3 °F 30.25 in Calm     78% 0.00 in 0 W/m2
22:14 39.4 °F 33.2 °F 30.25 in Calm     78% 0.00 in 0 W/m2
22:19 39.3 °F 33 °F 30.26 in Calm     78% 0.00 in 0 W/m2
22:24 39.2 °F 33.2 °F 30.26 in Calm     78.8% 0.00 in 0 W/m2
22:29 39.1 °F 33.1 °F 30.26 in Calm     79% 0.00 in 0 W/m2
22:34 39 °F 33.3 °F 30.26 in Calm     79.7% 0.00 in 0 W/m2
22:39 38.9 °F 33.3 °F 30.26 in Calm     80% 0.00 in 0 W/m2
22:44 38.9 °F 33.6 °F 30.26 in Calm     81% 0.00 in 0 W/m2
22:49 38.8 °F 33.5 °F 30.26 in Calm     81% 0.00 in 0 W/m2
22:54 38.7 °F 33.4 °F 30.26 in Calm     81% 0.00 in 0 W/m2
22:59 38.6 °F 33.3 °F 30.26 in Calm     81% 0.00 in 0 W/m2
23:04 38.4 °F 33.4 °F 30.26 in Calm     81.8% 0.00 in 0 W/m2
23:09 38.3 °F 33.3 °F 30.26 in Calm     82% 0.00 in 0 W/m2
23:14 38.1 °F 33.1 °F 30.26 in Calm     81.8% 0.00 in 0 W/m2
23:19 38 °F 33 °F 30.26 in Calm     82% 0.00 in 0 W/m2
23:24 37.8 °F 32.8 °F 30.26 in Calm     82% 0.00 in 0 W/m2
23:29 37.6 °F 32.6 °F 30.26 in Calm     82% 0.00 in 0 W/m2
23:34 37.5 °F 32.5 °F 30.26 in Calm     82% 0.00 in 0 W/m2
23:39 37.3 °F 32.3 °F 30.26 in Calm     82% 0.00 in 0 W/m2
23:44 37.1 °F 32.2 °F 30.26 in Calm     82% 0.00 in 0 W/m2
23:49 37 °F 32.3 °F 30.26 in Calm     82.7% 0.00 in 0 W/m2
23:54 36.9 °F 32.2 °F 30.26 in Calm     83% 0.00 in 0 W/m2
23:59 36.7 °F 32 °F 30.26 in Calm     83% 0.00 in 0 W/m2
Hartford County Weather
Compliments of Weather Underground - 4 mb